sensor_id;sensor_type;location;lat;lon;timestamp;temperature;humidity
5621;DHT22;2832;50.864;12.186;2024-02-26T00:01:07;10.80;99.90
5621;DHT22;2832;50.864;12.186;2024-02-26T00:03:36;10.80;99.90
5621;DHT22;2832;50.864;12.186;2024-02-26T00:06:30;10.80;99.90
5621;DHT22;2832;50.864;12.186;2024-02-26T00:09:26;10.70;99.90
5621;DHT22;2832;50.864;12.186;2024-02-26T00:12:07;10.70;99.90
5621;DHT22;2832;50.864;12.186;2024-02-26T00:15:02;10.70;99.90
5621;DHT22;2832;50.864;12.186;2024-02-26T00:17:30;10.70;99.90
5621;DHT22;2832;50.864;12.186;2024-02-26T00:20:03;10.70;99.90
5621;DHT22;2832;50.864;12.186;2024-02-26T00:22:39;10.70;99.90
5621;DHT22;2832;50.864;12.186;2024-02-26T00:25:14;10.70;99.90
5621;DHT22;2832;50.864;12.186;2024-02-26T00:27:46;10.70;99.90
5621;DHT22;2832;50.864;12.186;2024-02-26T00:30:37;10.70;99.90
5621;DHT22;2832;50.864;12.186;2024-02-26T00:33:18;10.60;99.90
5621;DHT22;2832;50.864;12.186;2024-02-26T00:36:26;10.60;99.90
5621;DHT22;2832;50.864;12.186;2024-02-26T00:39:00;10.60;99.90
5621;DHT22;2832;50.864;12.186;2024-02-26T00:41:29;10.60;99.90
5621;DHT22;2832;50.864;12.186;2024-02-26T00:44:01;10.60;99.90
5621;DHT22;2832;50.864;12.186;2024-02-26T00:46:38;10.60;99.90
5621;DHT22;2832;50.864;12.186;2024-02-26T00:49:16;10.60;99.90
5621;DHT22;2832;50.864;12.186;2024-02-26T00:51:45;10.60;99.90
5621;DHT22;2832;50.864;12.186;2024-02-26T00:54:15;10.60;99.90
5621;DHT22;2832;50.864;12.186;2024-02-26T00:57:47;10.60;99.90
5621;DHT22;2832;50.864;12.186;2024-02-26T01:00:21;10.50;99.90
5621;DHT22;2832;50.864;12.186;2024-02-26T01:02:56;10.50;99.90
5621;DHT22;2832;50.864;12.186;2024-02-26T01:05:41;10.50;99.90
5621;DHT22;2832;50.864;12.186;2024-02-26T01:08:44;10.50;99.90
5621;DHT22;2832;50.864;12.186;2024-02-26T01:11:20;10.50;99.90
5621;DHT22;2832;50.864;12.186;2024-02-26T01:13:52;10.50;99.90
5621;DHT22;2832;50.864;12.186;2024-02-26T01:16:51;10.50;99.90
5621;DHT22;2832;50.864;12.186;2024-02-26T01:19:21;10.50;99.90
5621;DHT22;2832;50.864;12.186;2024-02-26T01:21:55;10.50;99.90
5621;DHT22;2832;50.864;12.186;2024-02-26T01:24:31;10.50;99.90
5621;DHT22;2832;50.864;12.186;2024-02-26T01:27:07;10.50;99.90
5621;DHT22;2832;50.864;12.186;2024-02-26T01:29:46;10.50;99.90
5621;DHT22;2832;50.864;12.186;2024-02-26T01:32:17;10.50;99.90
5621;DHT22;2832;50.864;12.186;2024-02-26T01:34:51;10.40;99.90
5621;DHT22;2832;50.864;12.186;2024-02-26T01:37:19;10.40;99.90
5621;DHT22;2832;50.864;12.186;2024-02-26T01:39:53;10.40;99.90
5621;DHT22;2832;50.864;12.186;2024-02-26T01:42:41;10.40;99.90
5621;DHT22;2832;50.864;12.186;2024-02-26T01:45:15;10.40;99.90
5621;DHT22;2832;50.864;12.186;2024-02-26T01:47:54;10.40;99.90
5621;DHT22;2832;50.864;12.186;2024-02-26T01:50:31;10.40;99.90
5621;DHT22;2832;50.864;12.186;2024-02-26T01:53:05;10.40;99.90
5621;DHT22;2832;50.864;12.186;2024-02-26T01:55:46;10.40;99.90
5621;DHT22;2832;50.864;12.186;2024-02-26T01:58:26;10.40;99.90
5621;DHT22;2832;50.864;12.186;2024-02-26T02:01:00;10.40;99.90
5621;DHT22;2832;50.864;12.186;2024-02-26T02:03:33;10.30;99.90
5621;DHT22;2832;50.864;12.186;2024-02-26T02:06:07;10.30;99.90
5621;DHT22;2832;50.864;12.186;2024-02-26T02:08:38;10.30;99.90
5621;DHT22;2832;50.864;12.186;2024-02-26T02:11:13;10.30;99.90
5621;DHT22;2832;50.864;12.186;2024-02-26T02:13:43;10.30;99.90
5621;DHT22;2832;50.864;12.186;2024-02-26T02:16:19;10.40;99.90
5621;DHT22;2832;50.864;12.186;2024-02-26T02:19:06;10.40;99.90
5621;DHT22;2832;50.864;12.186;2024-02-26T02:21:46;10.30;99.90
5621;DHT22;2832;50.864;12.186;2024-02-26T02:24:19;10.30;99.90
5621;DHT22;2832;50.864;12.186;2024-02-26T02:26:52;10.30;99.90
5621;DHT22;2832;50.864;12.186;2024-02-26T02:29:30;10.20;99.90
5621;DHT22;2832;50.864;12.186;2024-02-26T02:32:07;10.30;99.90
5621;DHT22;2832;50.864;12.186;2024-02-26T02:34:42;10.30;99.90
5621;DHT22;2832;50.864;12.186;2024-02-26T02:37:27;10.20;99.90
5621;DHT22;2832;50.864;12.186;2024-02-26T02:40:00;10.20;99.90
5621;DHT22;2832;50.864;12.186;2024-02-26T02:42:39;10.20;99.90
5621;DHT22;2832;50.864;12.186;2024-02-26T02:45:20;10.20;99.90
5621;DHT22;2832;50.864;12.186;2024-02-26T02:47:51;10.20;99.90
5621;DHT22;2832;50.864;12.186;2024-02-26T02:50:22;10.20;99.90
5621;DHT22;2832;50.864;12.186;2024-02-26T02:52:58;10.20;99.90
5621;DHT22;2832;50.864;12.186;2024-02-26T02:55:31;10.20;99.90
5621;DHT22;2832;50.864;12.186;2024-02-26T02:58:00;10.20;99.90
5621;DHT22;2832;50.864;12.186;2024-02-26T03:01:02;10.20;99.90
5621;DHT22;2832;50.864;12.186;2024-02-26T03:03:31;10.20;99.90
5621;DHT22;2832;50.864;12.186;2024-02-26T03:05:59;10.20;99.90
5621;DHT22;2832;50.864;12.186;2024-02-26T03:08:35;10.10;99.90
5621;DHT22;2832;50.864;12.186;2024-02-26T03:11:06;10.10;99.90
5621;DHT22;2832;50.864;12.186;2024-02-26T03:13:33;10.10;99.90
5621;DHT22;2832;50.864;12.186;2024-02-26T03:16:05;10.10;99.90
5621;DHT22;2832;50.864;12.186;2024-02-26T03:18:34;10.10;99.90
5621;DHT22;2832;50.864;12.186;2024-02-26T03:21:02;10.00;99.90
5621;DHT22;2832;50.864;12.186;2024-02-26T03:23:32;10.00;99.90
5621;DHT22;2832;50.864;12.186;2024-02-26T03:26:03;10.00;99.90
5621;DHT22;2832;50.864;12.186;2024-02-26T03:28:31;10.00;99.90
5621;DHT22;2832;50.864;12.186;2024-02-26T03:31:00;10.00;99.90
5621;DHT22;2832;50.864;12.186;2024-02-26T03:33:29;10.00;99.90
5621;DHT22;2832;50.864;12.186;2024-02-26T03:35:56;10.00;99.90
5621;DHT22;2832;50.864;12.186;2024-02-26T03:38:24;10.00;99.90
5621;DHT22;2832;50.864;12.186;2024-02-26T03:40:55;10.00;99.90
5621;DHT22;2832;50.864;12.186;2024-02-26T03:43:23;10.00;99.90
5621;DHT22;2832;50.864;12.186;2024-02-26T03:45:52;9.90;99.90
5621;DHT22;2832;50.864;12.186;2024-02-26T03:48:19;9.90;99.90
5621;DHT22;2832;50.864;12.186;2024-02-26T03:50:47;10.00;99.90
5621;DHT22;2832;50.864;12.186;2024-02-26T03:53:15;9.90;99.90
5621;DHT22;2832;50.864;12.186;2024-02-26T03:55:44;9.90;99.90
5621;DHT22;2832;50.864;12.186;2024-02-26T03:58:14;9.90;99.90
5621;DHT22;2832;50.864;12.186;2024-02-26T04:00:43;9.80;99.90
5621;DHT22;2832;50.864;12.186;2024-02-26T04:03:13;9.80;99.90
5621;DHT22;2832;50.864;12.186;2024-02-26T04:05:41;9.80;99.90
5621;DHT22;2832;50.864;12.186;2024-02-26T04:08:09;9.80;99.90
5621;DHT22;2832;50.864;12.186;2024-02-26T04:10:37;9.80;99.90
5621;DHT22;2832;50.864;12.186;2024-02-26T04:13:07;9.80;99.90
5621;DHT22;2832;50.864;12.186;2024-02-26T04:15:43;9.80;99.90
5621;DHT22;2832;50.864;12.186;2024-02-26T04:18:15;9.80;99.90
5621;DHT22;2832;50.864;12.186;2024-02-26T04:20:46;9.80;99.90
5621;DHT22;2832;50.864;12.186;2024-02-26T04:23:18;9.80;99.90
5621;DHT22;2832;50.864;12.186;2024-02-26T04:25:51;9.80;99.90
5621;DHT22;2832;50.864;12.186;2024-02-26T04:28:22;9.70;99.90
5621;DHT22;2832;50.864;12.186;2024-02-26T04:30:53;9.80;99.90
5621;DHT22;2832;50.864;12.186;2024-02-26T04:33:21;9.80;99.90
5621;DHT22;2832;50.864;12.186;2024-02-26T04:35:49;9.80;99.90
5621;DHT22;2832;50.864;12.186;2024-02-26T04:38:17;9.80;99.90
5621;DHT22;2832;50.864;12.186;2024-02-26T04:40:47;9.90;99.90
5621;DHT22;2832;50.864;12.186;2024-02-26T04:43:15;9.90;99.90
5621;DHT22;2832;50.864;12.186;2024-02-26T04:45:47;9.90;99.90
5621;DHT22;2832;50.864;12.186;2024-02-26T04:48:20;9.90;99.90
5621;DHT22;2832;50.864;12.186;2024-02-26T04:50:53;9.90;99.90
5621;DHT22;2832;50.864;12.186;2024-02-26T04:53:26;9.90;99.90
5621;DHT22;2832;50.864;12.186;2024-02-26T04:55:56;9.90;99.90
5621;DHT22;2832;50.864;12.186;2024-02-26T04:58:27;9.90;99.90
5621;DHT22;2832;50.864;12.186;2024-02-26T05:01:01;9.90;99.90
5621;DHT22;2832;50.864;12.186;2024-02-26T05:03:33;9.90;99.90
5621;DHT22;2832;50.864;12.186;2024-02-26T05:06:05;9.90;99.90
5621;DHT22;2832;50.864;12.186;2024-02-26T05:08:36;9.90;99.90
5621;DHT22;2832;50.864;12.186;2024-02-26T05:11:07;9.90;99.90
5621;DHT22;2832;50.864;12.186;2024-02-26T05:13:43;9.90;99.90
5621;DHT22;2832;50.864;12.186;2024-02-26T05:16:18;9.90;99.90
5621;DHT22;2832;50.864;12.186;2024-02-26T05:18:53;10.00;99.90
5621;DHT22;2832;50.864;12.186;2024-02-26T05:21:23;9.90;99.90
5621;DHT22;2832;50.864;12.186;2024-02-26T05:23:51;9.90;99.90
5621;DHT22;2832;50.864;12.186;2024-02-26T05:26:20;9.90;99.90
5621;DHT22;2832;50.864;12.186;2024-02-26T05:28:50;9.90;99.90
5621;DHT22;2832;50.864;12.186;2024-02-26T05:31:23;9.90;99.90
5621;DHT22;2832;50.864;12.186;2024-02-26T05:33:56;9.90;99.90
5621;DHT22;2832;50.864;12.186;2024-02-26T05:36:24;9.90;99.90
5621;DHT22;2832;50.864;12.186;2024-02-26T05:38:52;9.80;99.90
5621;DHT22;2832;50.864;12.186;2024-02-26T05:41:20;9.80;99.90
5621;DHT22;2832;50.864;12.186;2024-02-26T05:43:52;9.90;99.90
5621;DHT22;2832;50.864;12.186;2024-02-26T05:46:23;9.90;99.90
5621;DHT22;2832;50.864;12.186;2024-02-26T05:49:04;9.90;99.90
5621;DHT22;2832;50.864;12.186;2024-02-26T05:51:37;9.90;99.90
5621;DHT22;2832;50.864;12.186;2024-02-26T05:54:19;9.90;99.90
5621;DHT22;2832;50.864;12.186;2024-02-26T05:56:50;9.90;99.90
5621;DHT22;2832;50.864;12.186;2024-02-26T05:59:23;9.80;99.90
5621;DHT22;2832;50.864;12.186;2024-02-26T06:01:51;9.80;99.90
5621;DHT22;2832;50.864;12.186;2024-02-26T06:04:24;9.80;99.90
5621;DHT22;2832;50.864;12.186;2024-02-26T06:06:53;9.80;99.90
5621;DHT22;2832;50.864;12.186;2024-02-26T06:09:23;9.90;99.90
5621;DHT22;2832;50.864;12.186;2024-02-26T06:11:53;9.90;99.90
5621;DHT22;2832;50.864;12.186;2024-02-26T06:14:21;9.90;99.90
5621;DHT22;2832;50.864;12.186;2024-02-26T06:16:51;9.90;99.90
5621;DHT22;2832;50.864;12.186;2024-02-26T06:19:21;10.00;99.90
5621;DHT22;2832;50.864;12.186;2024-02-26T06:21:52;9.90;99.90
5621;DHT22;2832;50.864;12.186;2024-02-26T06:24:24;9.90;99.90
5621;DHT22;2832;50.864;12.186;2024-02-26T06:26:52;9.90;99.90
5621;DHT22;2832;50.864;12.186;2024-02-26T06:29:20;9.90;99.90
5621;DHT22;2832;50.864;12.186;2024-02-26T06:31:48;9.90;99.90
5621;DHT22;2832;50.864;12.186;2024-02-26T06:34:17;9.90;99.90
5621;DHT22;2832;50.864;12.186;2024-02-26T06:36:46;9.90;99.90
5621;DHT22;2832;50.864;12.186;2024-02-26T06:39:23;9.90;99.90
5621;DHT22;2832;50.864;12.186;2024-02-26T06:41:56;9.90;99.90
5621;DHT22;2832;50.864;12.186;2024-02-26T06:44:28;9.90;99.90
5621;DHT22;2832;50.864;12.186;2024-02-26T06:47:03;9.80;99.90
5621;DHT22;2832;50.864;12.186;2024-02-26T06:49:36;9.80;99.90
5621;DHT22;2832;50.864;12.186;2024-02-26T06:52:19;9.80;99.90
5621;DHT22;2832;50.864;12.186;2024-02-26T06:55:03;9.80;99.90
5621;DHT22;2832;50.864;12.186;2024-02-26T06:57:46;9.80;99.90
5621;DHT22;2832;50.864;12.186;2024-02-26T07:00:16;9.80;99.90
5621;DHT22;2832;50.864;12.186;2024-02-26T07:06:45;9.80;99.90
5621;DHT22;2832;50.864;12.186;2024-02-26T07:09:18;9.80;99.90
5621;DHT22;2832;50.864;12.186;2024-02-26T07:11:47;9.80;99.90
5621;DHT22;2832;50.864;12.186;2024-02-26T07:14:17;9.80;99.90
5621;DHT22;2832;50.864;12.186;2024-02-26T07:16:45;9.80;99.90
5621;DHT22;2832;50.864;12.186;2024-02-26T07:19:14;9.80;99.90
5621;DHT22;2832;50.864;12.186;2024-02-26T07:21:43;9.80;99.90
5621;DHT22;2832;50.864;12.186;2024-02-26T07:24:27;9.80;99.90
5621;DHT22;2832;50.864;12.186;2024-02-26T07:26:59;9.80;99.90
5621;DHT22;2832;50.864;12.186;2024-02-26T07:29:27;9.80;99.90
5621;DHT22;2832;50.864;12.186;2024-02-26T07:32:00;9.80;99.90
5621;DHT22;2832;50.864;12.186;2024-02-26T07:34:30;9.80;99.90
5621;DHT22;2832;50.864;12.186;2024-02-26T07:37:00;9.80;99.90
5621;DHT22;2832;50.864;12.186;2024-02-26T07:39:33;9.80;99.90
5621;DHT22;2832;50.864;12.186;2024-02-26T07:42:01;9.80;99.90
5621;DHT22;2832;50.864;12.186;2024-02-26T07:44:32;9.70;99.90
5621;DHT22;2832;50.864;12.186;2024-02-26T07:47:03;9.70;99.90
5621;DHT22;2832;50.864;12.186;2024-02-26T07:49:31;9.70;99.90
5621;DHT22;2832;50.864;12.186;2024-02-26T07:52:01;9.70;99.90
5621;DHT22;2832;50.864;12.186;2024-02-26T07:54:29;9.70;99.90
5621;DHT22;2832;50.864;12.186;2024-02-26T07:56:58;9.70;99.90
5621;DHT22;2832;50.864;12.186;2024-02-26T07:59:37;9.70;99.90
5621;DHT22;2832;50.864;12.186;2024-02-26T08:02:08;9.70;99.90
5621;DHT22;2832;50.864;12.186;2024-02-26T08:04:42;9.70;99.90
5621;DHT22;2832;50.864;12.186;2024-02-26T08:07:13;9.70;99.90
5621;DHT22;2832;50.864;12.186;2024-02-26T08:09:43;9.70;99.90
5621;DHT22;2832;50.864;12.186;2024-02-26T08:12:15;9.70;99.90
5621;DHT22;2832;50.864;12.186;2024-02-26T08:14:43;9.70;99.90
5621;DHT22;2832;50.864;12.186;2024-02-26T08:17:13;9.70;99.90
5621;DHT22;2832;50.864;12.186;2024-02-26T08:19:48;9.70;99.90
5621;DHT22;2832;50.864;12.186;2024-02-26T08:22:18;9.60;99.90
5621;DHT22;2832;50.864;12.186;2024-02-26T08:24:46;9.60;99.90
5621;DHT22;2832;50.864;12.186;2024-02-26T08:27:16;9.60;99.90
5621;DHT22;2832;50.864;12.186;2024-02-26T08:29:46;9.60;99.90
5621;DHT22;2832;50.864;12.186;2024-02-26T08:32:13;9.60;99.90
5621;DHT22;2832;50.864;12.186;2024-02-26T08:34:43;9.60;99.90
5621;DHT22;2832;50.864;12.186;2024-02-26T08:37:11;9.60;99.90
5621;DHT22;2832;50.864;12.186;2024-02-26T08:39:45;9.60;99.90
5621;DHT22;2832;50.864;12.186;2024-02-26T08:53:38;9.70;99.90
5621;DHT22;2832;50.864;12.186;2024-02-26T08:56:13;9.70;99.90
5621;DHT22;2832;50.864;12.186;2024-02-26T08:58:47;9.80;99.90
5621;DHT22;2832;50.864;12.186;2024-02-26T09:01:23;9.80;99.90
5621;DHT22;2832;50.864;12.186;2024-02-26T09:03:54;9.80;99.90
5621;DHT22;2832;50.864;12.186;2024-02-26T09:06:26;9.70;99.90
5621;DHT22;2832;50.864;12.186;2024-02-26T09:09:09;9.70;99.90
5621;DHT22;2832;50.864;12.186;2024-02-26T09:11:45;9.70;99.90
5621;DHT22;2832;50.864;12.186;2024-02-26T09:14:41;9.80;99.90
5621;DHT22;2832;50.864;12.186;2024-02-26T09:17:22;10.20;99.90
5621;DHT22;2832;50.864;12.186;2024-02-26T09:19:56;10.30;99.90
5621;DHT22;2832;50.864;12.186;2024-02-26T09:22:30;10.40;99.90
5621;DHT22;2832;50.864;12.186;2024-02-26T09:25:06;10.60;99.90
5621;DHT22;2832;50.864;12.186;2024-02-26T09:27:37;10.80;99.90
5621;DHT22;2832;50.864;12.186;2024-02-26T09:30:20;10.80;99.90
5621;DHT22;2832;50.864;12.186;2024-02-26T09:33:02;11.00;99.90
5621;DHT22;2832;50.864;12.186;2024-02-26T09:36:01;11.00;99.90
5621;DHT22;2832;50.864;12.186;2024-02-26T09:38:43;11.00;99.90
5621;DHT22;2832;50.864;12.186;2024-02-26T09:41:29;11.00;99.90
5621;DHT22;2832;50.864;12.186;2024-02-26T09:44:25;11.10;99.90
5621;DHT22;2832;50.864;12.186;2024-02-26T09:47:06;11.10;99.90
5621;DHT22;2832;50.864;12.186;2024-02-26T09:49:46;11.10;99.90
5621;DHT22;2832;50.864;12.186;2024-02-26T09:52:35;11.10;99.90
5621;DHT22;2832;50.864;12.186;2024-02-26T09:55:16;11.20;99.90
5621;DHT22;2832;50.864;12.186;2024-02-26T09:57:54;11.20;99.90
5621;DHT22;2832;50.864;12.186;2024-02-26T10:00:42;11.30;99.90
5621;DHT22;2832;50.864;12.186;2024-02-26T10:03:20;11.30;99.90
5621;DHT22;2832;50.864;12.186;2024-02-26T10:05:57;11.30;99.90
5621;DHT22;2832;50.864;12.186;2024-02-26T10:08:38;11.30;99.90
5621;DHT22;2832;50.864;12.186;2024-02-26T10:11:15;11.20;99.90
5621;DHT22;2832;50.864;12.186;2024-02-26T10:13:50;11.30;99.90
5621;DHT22;2832;50.864;12.186;2024-02-26T10:16:25;11.30;99.90
5621;DHT22;2832;50.864;12.186;2024-02-26T10:18:57;11.30;99.90
5621;DHT22;2832;50.864;12.186;2024-02-26T10:21:28;11.30;99.90
5621;DHT22;2832;50.864;12.186;2024-02-26T10:23:59;11.30;99.90
5621;DHT22;2832;50.864;12.186;2024-02-26T10:26:32;11.30;99.90
5621;DHT22;2832;50.864;12.186;2024-02-26T10:29:08;11.30;99.90
5621;DHT22;2832;50.864;12.186;2024-02-26T10:31:50;11.30;99.90
5621;DHT22;2832;50.864;12.186;2024-02-26T10:34:41;11.30;99.90
5621;DHT22;2832;50.864;12.186;2024-02-26T10:37:10;11.40;99.90
5621;DHT22;2832;50.864;12.186;2024-02-26T10:39:47;11.40;99.90
5621;DHT22;2832;50.864;12.186;2024-02-26T10:42:15;11.40;99.90
5621;DHT22;2832;50.864;12.186;2024-02-26T10:44:57;11.50;99.90
5621;DHT22;2832;50.864;12.186;2024-02-26T10:47:26;11.50;99.90
5621;DHT22;2832;50.864;12.186;2024-02-26T10:49:56;11.30;99.90
5621;DHT22;2832;50.864;12.186;2024-02-26T10:52:26;11.20;99.90
5621;DHT22;2832;50.864;12.186;2024-02-26T10:54:57;11.00;99.90
5621;DHT22;2832;50.864;12.186;2024-02-26T10:57:33;11.00;99.90
5621;DHT22;2832;50.864;12.186;2024-02-26T11:00:18;10.90;99.90
5621;DHT22;2832;50.864;12.186;2024-02-26T11:02:46;10.80;99.90
5621;DHT22;2832;50.864;12.186;2024-02-26T11:05:15;10.80;99.90
5621;DHT22;2832;50.864;12.186;2024-02-26T11:07:55;10.80;99.90
5621;DHT22;2832;50.864;12.186;2024-02-26T11:10:27;10.80;99.90
5621;DHT22;2832;50.864;12.186;2024-02-26T11:13:00;10.70;99.90
5621;DHT22;2832;50.864;12.186;2024-02-26T11:15:36;10.80;99.90
5621;DHT22;2832;50.864;12.186;2024-02-26T11:18:12;10.70;99.90
5621;DHT22;2832;50.864;12.186;2024-02-26T11:20:46;10.70;99.90
5621;DHT22;2832;50.864;12.186;2024-02-26T11:23:33;10.70;99.90
5621;DHT22;2832;50.864;12.186;2024-02-26T11:26:09;10.60;99.90
5621;DHT22;2832;50.864;12.186;2024-02-26T11:28:44;10.60;99.90
5621;DHT22;2832;50.864;12.186;2024-02-26T11:31:17;10.60;99.90
5621;DHT22;2832;50.864;12.186;2024-02-26T11:33:53;10.60;99.90
5621;DHT22;2832;50.864;12.186;2024-02-26T11:36:24;10.60;99.90
5621;DHT22;2832;50.864;12.186;2024-02-26T11:38:52;10.50;99.90
5621;DHT22;2832;50.864;12.186;2024-02-26T11:41:22;10.50;99.90
5621;DHT22;2832;50.864;12.186;2024-02-26T11:43:51;10.40;99.90
5621;DHT22;2832;50.864;12.186;2024-02-26T11:46:28;10.30;99.90
5621;DHT22;2832;50.864;12.186;2024-02-26T11:49:00;10.20;99.90
5621;DHT22;2832;50.864;12.186;2024-02-26T11:51:45;10.20;99.90
5621;DHT22;2832;50.864;12.186;2024-02-26T11:55:08;10.20;99.90
5621;DHT22;2832;50.864;12.186;2024-02-26T11:57:43;10.10;99.90
5621;DHT22;2832;50.864;12.186;2024-02-26T12:00:18;10.10;99.90
5621;DHT22;2832;50.864;12.186;2024-02-26T12:03:03;10.20;99.90
5621;DHT22;2832;50.864;12.186;2024-02-26T12:05:37;10.20;99.90
5621;DHT22;2832;50.864;12.186;2024-02-26T12:08:10;10.30;99.90
5621;DHT22;2832;50.864;12.186;2024-02-26T12:10:44;10.40;99.90
5621;DHT22;2832;50.864;12.186;2024-02-26T12:13:20;10.40;99.90
5621;DHT22;2832;50.864;12.186;2024-02-26T12:16:11;10.50;99.90
5621;DHT22;2832;50.864;12.186;2024-02-26T12:19:05;10.50;99.90
5621;DHT22;2832;50.864;12.186;2024-02-26T12:21:50;10.60;99.90
5621;DHT22;2832;50.864;12.186;2024-02-26T12:24:27;10.60;99.90
5621;DHT22;2832;50.864;12.186;2024-02-26T12:26:57;10.50;99.90
5621;DHT22;2832;50.864;12.186;2024-02-26T12:29:35;10.50;99.90
5621;DHT22;2832;50.864;12.186;2024-02-26T12:32:21;10.50;99.90
5621;DHT22;2832;50.864;12.186;2024-02-26T12:35:01;10.50;99.90
5621;DHT22;2832;50.864;12.186;2024-02-26T12:37:37;10.50;99.90
5621;DHT22;2832;50.864;12.186;2024-02-26T12:40:10;10.60;99.90
5621;DHT22;2832;50.864;12.186;2024-02-26T12:43:40;10.60;99.90
5621;DHT22;2832;50.864;12.186;2024-02-26T12:46:46;10.70;99.90
5621;DHT22;2832;50.864;12.186;2024-02-26T12:49:21;10.80;99.90
5621;DHT22;2832;50.864;12.186;2024-02-26T12:52:00;10.70;99.90
5621;DHT22;2832;50.864;12.186;2024-02-26T12:54:51;10.70;99.90
5621;DHT22;2832;50.864;12.186;2024-02-26T13:07:05;10.80;99.90
5621;DHT22;2832;50.864;12.186;2024-02-26T13:09:47;10.80;99.90
5621;DHT22;2832;50.864;12.186;2024-02-26T13:12:26;10.80;99.90
5621;DHT22;2832;50.864;12.186;2024-02-26T13:15:04;10.80;99.90
5621;DHT22;2832;50.864;12.186;2024-02-26T13:17:35;10.90;99.90
5621;DHT22;2832;50.864;12.186;2024-02-26T13:20:24;10.90;99.90
5621;DHT22;2832;50.864;12.186;2024-02-26T13:23:07;10.90;99.90
5621;DHT22;2832;50.864;12.186;2024-02-26T13:26:11;11.00;99.90
5621;DHT22;2832;50.864;12.186;2024-02-26T13:29:35;11.00;99.90
5621;DHT22;2832;50.864;12.186;2024-02-26T13:35:59;11.00;99.90
5621;DHT22;2832;50.864;12.186;2024-02-26T13:39:04;11.00;99.90
5621;DHT22;2832;50.864;12.186;2024-02-26T13:48:54;11.10;99.90
5621;DHT22;2832;50.864;12.186;2024-02-26T13:51:35;11.00;99.90
5621;DHT22;2832;50.864;12.186;2024-02-26T13:54:26;11.00;99.90
5621;DHT22;2832;50.864;12.186;2024-02-26T13:57:23;11.00;99.90
5621;DHT22;2832;50.864;12.186;2024-02-26T14:00:24;10.90;99.90
5621;DHT22;2832;50.864;12.186;2024-02-26T14:03:00;11.10;99.90
5621;DHT22;2832;50.864;12.186;2024-02-26T14:05:31;11.10;99.90
5621;DHT22;2832;50.864;12.186;2024-02-26T14:08:32;11.00;99.90
5621;DHT22;2832;50.864;12.186;2024-02-26T14:15:46;11.10;99.90
5621;DHT22;2832;50.864;12.186;2024-02-26T14:18:18;11.00;99.90
5621;DHT22;2832;50.864;12.186;2024-02-26T14:20:51;11.00;99.90
5621;DHT22;2832;50.864;12.186;2024-02-26T14:27:15;10.90;99.90
5621;DHT22;2832;50.864;12.186;2024-02-26T14:30:18;10.80;99.90
5621;DHT22;2832;50.864;12.186;2024-02-26T14:33:07;10.90;99.90
5621;DHT22;2832;50.864;12.186;2024-02-26T14:35:44;10.90;99.90
5621;DHT22;2832;50.864;12.186;2024-02-26T14:38:25;10.80;99.90
5621;DHT22;2832;50.864;12.186;2024-02-26T14:45:28;10.80;99.90
5621;DHT22;2832;50.864;12.186;2024-02-26T14:55:34;10.60;99.90
5621;DHT22;2832;50.864;12.186;2024-02-26T14:58:05;10.50;99.90
5621;DHT22;2832;50.864;12.186;2024-02-26T15:03:56;10.50;99.90
5621;DHT22;2832;50.864;12.186;2024-02-26T15:06:33;10.50;99.90
5621;DHT22;2832;50.864;12.186;2024-02-26T15:09:20;10.50;99.90
5621;DHT22;2832;50.864;12.186;2024-02-26T15:12:24;10.50;99.90
5621;DHT22;2832;50.864;12.186;2024-02-26T15:14:57;10.50;99.90
5621;DHT22;2832;50.864;12.186;2024-02-26T15:17:27;10.50;99.90
5621;DHT22;2832;50.864;12.186;2024-02-26T15:20:02;10.50;99.90
5621;DHT22;2832;50.864;12.186;2024-02-26T15:22:38;10.40;99.90
5621;DHT22;2832;50.864;12.186;2024-02-26T15:25:18;10.50;99.90
5621;DHT22;2832;50.864;12.186;2024-02-26T15:31:37;10.50;99.90
5621;DHT22;2832;50.864;12.186;2024-02-26T15:34:34;10.50;99.90
5621;DHT22;2832;50.864;12.186;2024-02-26T15:37:20;10.50;99.90
5621;DHT22;2832;50.864;12.186;2024-02-26T15:39:57;10.50;99.90
5621;DHT22;2832;50.864;12.186;2024-02-26T15:42:48;10.50;99.90
5621;DHT22;2832;50.864;12.186;2024-02-26T15:45:23;10.50;99.90
5621;DHT22;2832;50.864;12.186;2024-02-26T15:48:01;10.50;99.90
5621;DHT22;2832;50.864;12.186;2024-02-26T15:50:38;10.50;99.90
5621;DHT22;2832;50.864;12.186;2024-02-26T15:53:10;10.50;99.90
5621;DHT22;2832;50.864;12.186;2024-02-26T15:55:49;10.50;99.90
5621;DHT22;2832;50.864;12.186;2024-02-26T15:58:22;10.50;99.90
5621;DHT22;2832;50.864;12.186;2024-02-26T16:01:00;10.50;99.90
5621;DHT22;2832;50.864;12.186;2024-02-26T16:03:42;10.50;99.90
5621;DHT22;2832;50.864;12.186;2024-02-26T16:06:18;10.40;99.90
5621;DHT22;2832;50.864;12.186;2024-02-26T16:08:49;10.40;99.90
5621;DHT22;2832;50.864;12.186;2024-02-26T16:11:19;10.40;99.90
5621;DHT22;2832;50.864;12.186;2024-02-26T16:13:53;10.50;99.90
5621;DHT22;2832;50.864;12.186;2024-02-26T16:16:24;10.40;99.90
5621;DHT22;2832;50.864;12.186;2024-02-26T16:19:05;10.40;99.90
5621;DHT22;2832;50.864;12.186;2024-02-26T16:21:50;10.50;99.90
5621;DHT22;2832;50.864;12.186;2024-02-26T16:24:22;10.50;99.90
5621;DHT22;2832;50.864;12.186;2024-02-26T16:26:57;10.50;99.90
5621;DHT22;2832;50.864;12.186;2024-02-26T16:29:35;10.50;99.90
5621;DHT22;2832;50.864;12.186;2024-02-26T16:32:11;10.50;99.90
5621;DHT22;2832;50.864;12.186;2024-02-26T16:34:47;10.50;99.90
5621;DHT22;2832;50.864;12.186;2024-02-26T16:37:18;10.50;99.90
5621;DHT22;2832;50.864;12.186;2024-02-26T16:39:50;10.50;99.90
5621;DHT22;2832;50.864;12.186;2024-02-26T16:46:10;10.40;99.90
5621;DHT22;2832;50.864;12.186;2024-02-26T16:48:44;10.50;99.90
5621;DHT22;2832;50.864;12.186;2024-02-26T16:51:25;10.50;99.90
5621;DHT22;2832;50.864;12.186;2024-02-26T16:54:03;10.40;99.90
5621;DHT22;2832;50.864;12.186;2024-02-26T16:56:45;10.40;99.90
5621;DHT22;2832;50.864;12.186;2024-02-26T16:59:24;10.40;99.90
5621;DHT22;2832;50.864;12.186;2024-02-26T17:02:10;10.40;99.90
5621;DHT22;2832;50.864;12.186;2024-02-26T17:04:48;10.50;99.90
5621;DHT22;2832;50.864;12.186;2024-02-26T17:07:34;10.50;99.90
5621;DHT22;2832;50.864;12.186;2024-02-26T17:10:11;10.40;99.90
5621;DHT22;2832;50.864;12.186;2024-02-26T17:12:52;10.40;99.90
5621;DHT22;2832;50.864;12.186;2024-02-26T17:16:02;10.40;99.90
5621;DHT22;2832;50.864;12.186;2024-02-26T17:18:35;10.40;99.90
5621;DHT22;2832;50.864;12.186;2024-02-26T17:21:05;10.40;99.90
5621;DHT22;2832;50.864;12.186;2024-02-26T17:23:48;10.40;99.90
5621;DHT22;2832;50.864;12.186;2024-02-26T17:26:25;10.40;99.90
5621;DHT22;2832;50.864;12.186;2024-02-26T17:29:09;10.40;99.90
5621;DHT22;2832;50.864;12.186;2024-02-26T17:31:48;10.50;99.90
5621;DHT22;2832;50.864;12.186;2024-02-26T17:34:23;10.50;99.90
5621;DHT22;2832;50.864;12.186;2024-02-26T17:37:08;10.50;99.90
5621;DHT22;2832;50.864;12.186;2024-02-26T17:39:42;10.40;99.90
5621;DHT22;2832;50.864;12.186;2024-02-26T17:42:14;10.40;99.90
5621;DHT22;2832;50.864;12.186;2024-02-26T17:44:42;10.30;99.90
5621;DHT22;2832;50.864;12.186;2024-02-26T17:47:10;10.40;99.90
5621;DHT22;2832;50.864;12.186;2024-02-26T17:49:39;10.30;99.90
5621;DHT22;2832;50.864;12.186;2024-02-26T17:52:08;10.30;99.90
5621;DHT22;2832;50.864;12.186;2024-02-26T17:54:48;10.30;99.90